sensor_id;sensor_type;location;lat;lon;timestamp;P1;durP1;ratioP1;P2;durP2;ratioP2
39276;SDS011;63149;48.086;-1.606;2023-08-12T05:02:29;11.63;;;4.82;;
39276;SDS011;63149;48.086;-1.606;2023-08-12T05:04:56;8.50;;;4.47;;
39276;SDS011;63149;48.086;-1.606;2023-08-12T05:07:23;10.77;;;4.68;;
39276;SDS011;63149;48.086;-1.606;2023-08-12T05:09:50;10.20;;;4.47;;
39276;SDS011;63149;48.086;-1.606;2023-08-12T05:12:16;10.23;;;4.68;;
39276;SDS011;63149;48.086;-1.606;2023-08-12T05:14:43;10.68;;;4.50;;
39276;SDS011;63149;48.086;-1.606;2023-08-12T05:17:10;11.27;;;4.85;;
39276;SDS011;63149;48.086;-1.606;2023-08-12T05:19:39;8.27;;;4.43;;
39276;SDS011;63149;48.086;-1.606;2023-08-12T05:22:05;13.38;;;5.45;;
39276;SDS011;63149;48.086;-1.606;2023-08-12T05:24:32;13.02;;;4.90;;
39276;SDS011;63149;48.086;-1.606;2023-08-12T05:26:59;14.38;;;5.55;;
39276;SDS011;63149;48.086;-1.606;2023-08-12T05:29:26;10.15;;;4.75;;
39276;SDS011;63149;48.086;-1.606;2023-08-12T05:31:53;14.00;;;5.55;;
39276;SDS011;63149;48.086;-1.606;2023-08-12T05:34:20;9.10;;;5.40;;
39276;SDS011;63149;48.086;-1.606;2023-08-12T05:36:48;15.77;;;5.20;;
39276;SDS011;63149;48.086;-1.606;2023-08-12T05:39:15;16.92;;;5.47;;
39276;SDS011;63149;48.086;-1.606;2023-08-12T05:41:43;9.60;;;5.00;;
39276;SDS011;63149;48.086;-1.606;2023-08-12T05:44:11;11.70;;;5.28;;
39276;SDS011;63149;48.086;-1.606;2023-08-12T05:46:38;17.17;;;5.60;;
39276;SDS011;63149;48.086;-1.606;2023-08-12T05:49:05;15.63;;;5.00;;
39276;SDS011;63149;48.086;-1.606;2023-08-12T05:51:32;18.38;;;5.50;;
39276;SDS011;63149;48.086;-1.606;2023-08-12T05:54:00;14.93;;;5.38;;
39276;SDS011;63149;48.086;-1.606;2023-08-12T05:56:27;14.13;;;6.30;;
39276;SDS011;63149;48.086;-1.606;2023-08-12T05:58:54;19.55;;;5.43;;
39276;SDS011;63149;48.086;-1.606;2023-08-12T06:01:21;18.77;;;5.75;;
39276;SDS011;63149;48.086;-1.606;2023-08-12T06:03:48;17.83;;;6.20;;
39276;SDS011;63149;48.086;-1.606;2023-08-12T06:06:15;15.80;;;5.53;;
39276;SDS011;63149;48.086;-1.606;2023-08-12T06:08:41;12.10;;;5.72;;
39276;SDS011;63149;48.086;-1.606;2023-08-12T06:11:10;16.02;;;5.90;;
39276;SDS011;63149;48.086;-1.606;2023-08-12T06:13:37;19.27;;;5.63;;
39276;SDS011;63149;48.086;-1.606;2023-08-12T06:16:04;15.00;;;5.40;;
39276;SDS011;63149;48.086;-1.606;2023-08-12T06:18:31;17.52;;;5.90;;
39276;SDS011;63149;48.086;-1.606;2023-08-12T06:20:58;13.93;;;4.97;;
39276;SDS011;63149;48.086;-1.606;2023-08-12T06:23:25;15.30;;;5.22;;
39276;SDS011;63149;48.086;-1.606;2023-08-12T06:25:52;19.98;;;5.75;;
39276;SDS011;63149;48.086;-1.606;2023-08-12T06:28:20;20.00;;;5.78;;
39276;SDS011;63149;48.086;-1.606;2023-08-12T06:30:47;14.95;;;5.57;;
39276;SDS011;63149;48.086;-1.606;2023-08-12T06:33:14;18.08;;;5.90;;
39276;SDS011;63149;48.086;-1.606;2023-08-12T06:35:41;21.40;;;5.70;;
39276;SDS011;63149;48.086;-1.606;2023-08-12T06:38:08;14.48;;;6.10;;
39276;SDS011;63149;48.086;-1.606;2023-08-12T06:40:37;16.90;;;5.05;;
39276;SDS011;63149;48.086;-1.606;2023-08-12T06:43:04;11.60;;;5.18;;
39276;SDS011;63149;48.086;-1.606;2023-08-12T06:45:33;15.55;;;5.47;;
39276;SDS011;63149;48.086;-1.606;2023-08-12T06:48:00;22.00;;;5.30;;
39276;SDS011;63149;48.086;-1.606;2023-08-12T06:50:28;23.08;;;5.80;;
39276;SDS011;63149;48.086;-1.606;2023-08-12T06:52:55;24.35;;;6.25;;
39276;SDS011;63149;48.086;-1.606;2023-08-12T06:55:22;25.52;;;6.38;;
39276;SDS011;63149;48.086;-1.606;2023-08-12T06:57:49;18.75;;;6.25;;
39276;SDS011;63149;48.086;-1.606;2023-08-12T07:00:16;20.80;;;5.78;;
39276;SDS011;63149;48.086;-1.606;2023-08-12T07:02:44;17.67;;;6.45;;
39276;SDS011;63149;48.086;-1.606;2023-08-12T07:05:11;20.90;;;6.18;;
39276;SDS011;63149;48.086;-1.606;2023-08-12T07:07:38;17.95;;;5.63;;
39276;SDS011;63149;48.086;-1.606;2023-08-12T07:10:05;23.55;;;5.85;;
39276;SDS011;63149;48.086;-1.606;2023-08-12T07:12:33;19.50;;;6.35;;
39276;SDS011;63149;48.086;-1.606;2023-08-12T07:15:00;18.02;;;6.05;;
39276;SDS011;63149;48.086;-1.606;2023-08-12T07:17:27;22.80;;;6.03;;
39276;SDS011;63149;48.086;-1.606;2023-08-12T07:19:55;20.08;;;5.72;;
39276;SDS011;63149;48.086;-1.606;2023-08-12T07:22:22;31.50;;;6.18;;
39276;SDS011;63149;48.086;-1.606;2023-08-12T07:24:49;22.77;;;6.07;;
39276;SDS011;63149;48.086;-1.606;2023-08-12T07:27:17;20.80;;;5.82;;
39276;SDS011;63149;48.086;-1.606;2023-08-12T07:29:45;20.15;;;5.60;;
39276;SDS011;63149;48.086;-1.606;2023-08-12T07:32:12;22.95;;;6.28;;
39276;SDS011;63149;48.086;-1.606;2023-08-12T07:34:39;20.25;;;5.50;;
39276;SDS011;63149;48.086;-1.606;2023-08-12T07:37:07;22.08;;;5.88;;
39276;SDS011;63149;48.086;-1.606;2023-08-12T07:39:34;20.48;;;5.45;;
39276;SDS011;63149;48.086;-1.606;2023-08-12T07:42:01;25.90;;;5.72;;
39276;SDS011;63149;48.086;-1.606;2023-08-12T07:44:28;22.48;;;5.53;;
39276;SDS011;63149;48.086;-1.606;2023-08-12T07:46:55;18.00;;;5.28;;
39276;SDS011;63149;48.086;-1.606;2023-08-12T07:49:22;19.95;;;4.85;;
39276;SDS011;63149;48.086;-1.606;2023-08-12T07:51:49;18.35;;;5.65;;
39276;SDS011;63149;48.086;-1.606;2023-08-12T07:54:18;27.38;;;5.60;;
39276;SDS011;63149;48.086;-1.606;2023-08-12T07:56:44;16.83;;;5.53;;
39276;SDS011;63149;48.086;-1.606;2023-08-12T07:59:11;25.25;;;5.82;;
39276;SDS011;63149;48.086;-1.606;2023-08-12T08:01:38;22.70;;;4.75;;
39276;SDS011;63149;48.086;-1.606;2023-08-12T08:04:05;24.83;;;5.97;;
39276;SDS011;63149;48.086;-1.606;2023-08-12T08:06:32;16.95;;;5.43;;
39276;SDS011;63149;48.086;-1.606;2023-08-12T08:08:59;25.52;;;5.95;;
39276;SDS011;63149;48.086;-1.606;2023-08-12T08:11:30;22.55;;;5.43;;
39276;SDS011;63149;48.086;-1.606;2023-08-12T08:13:58;22.20;;;5.35;;
39276;SDS011;63149;48.086;-1.606;2023-08-12T08:16:25;17.38;;;5.35;;
39276;SDS011;63149;48.086;-1.606;2023-08-12T08:18:52;16.20;;;5.07;;
39276;SDS011;63149;48.086;-1.606;2023-08-12T08:21:19;24.95;;;5.50;;
39276;SDS011;63149;48.086;-1.606;2023-08-12T08:23:46;21.90;;;5.40;;
39276;SDS011;63149;48.086;-1.606;2023-08-12T08:26:12;17.55;;;5.25;;
39276;SDS011;63149;48.086;-1.606;2023-08-12T08:28:42;24.00;;;5.45;;
39276;SDS011;63149;48.086;-1.606;2023-08-12T08:31:09;22.20;;;5.22;;
39276;SDS011;63149;48.086;-1.606;2023-08-12T08:33:35;20.52;;;4.90;;
39276;SDS011;63149;48.086;-1.606;2023-08-12T08:36:03;20.25;;;5.22;;
39276;SDS011;63149;48.086;-1.606;2023-08-12T08:38:30;12.27;;;4.82;;
39276;SDS011;63149;48.086;-1.606;2023-08-12T08:40:57;16.13;;;4.40;;
39276;SDS011;63149;48.086;-1.606;2023-08-12T08:43:24;16.95;;;5.20;;
39276;SDS011;63149;48.086;-1.606;2023-08-12T08:45:54;25.25;;;5.03;;
39276;SDS011;63149;48.086;-1.606;2023-08-12T08:48:22;15.63;;;4.75;;
39276;SDS011;63149;48.086;-1.606;2023-08-12T08:50:49;17.70;;;5.28;;
39276;SDS011;63149;48.086;-1.606;2023-08-12T08:53:17;22.95;;;4.88;;
39276;SDS011;63149;48.086;-1.606;2023-08-12T08:55:44;16.63;;;4.38;;
39276;SDS011;63149;48.086;-1.606;2023-08-12T08:58:12;21.08;;;4.43;;
39276;SDS011;63149;48.086;-1.606;2023-08-12T09:00:39;21.63;;;4.80;;
39276;SDS011;63149;48.086;-1.606;2023-08-12T09:03:07;13.80;;;4.13;;
39276;SDS011;63149;48.086;-1.606;2023-08-12T09:05:36;19.13;;;4.68;;
39276;SDS011;63149;48.086;-1.606;2023-08-12T09:08:04;18.35;;;4.93;;
39276;SDS011;63149;48.086;-1.606;2023-08-12T09:13:04;19.67;;;5.65;;
39276;SDS011;63149;48.086;-1.606;2023-08-12T09:15:32;17.70;;;3.92;;
39276;SDS011;63149;48.086;-1.606;2023-08-12T09:17:59;18.35;;;4.20;;
39276;SDS011;63149;48.086;-1.606;2023-08-12T09:20:27;15.05;;;4.55;;
39276;SDS011;63149;48.086;-1.606;2023-08-12T09:22:57;12.98;;;4.22;;
39276;SDS011;63149;48.086;-1.606;2023-08-12T09:25:26;16.30;;;4.90;;
39276;SDS011;63149;48.086;-1.606;2023-08-12T09:27:55;14.40;;;4.22;;
39276;SDS011;63149;48.086;-1.606;2023-08-12T09:30:25;16.60;;;4.57;;
39276;SDS011;63149;48.086;-1.606;2023-08-12T09:32:59;16.90;;;4.47;;
39276;SDS011;63149;48.086;-1.606;2023-08-12T09:35:36;21.17;;;4.85;;
39276;SDS011;63149;48.086;-1.606;2023-08-12T09:38:05;15.00;;;3.33;;
39276;SDS011;63149;48.086;-1.606;2023-08-12T09:40:33;16.65;;;4.28;;
39276;SDS011;63149;48.086;-1.606;2023-08-12T09:43:01;13.65;;;3.25;;
39276;SDS011;63149;48.086;-1.606;2023-08-12T09:45:29;14.63;;;3.83;;
39276;SDS011;63149;48.086;-1.606;2023-08-12T09:47:56;12.30;;;3.80;;
39276;SDS011;63149;48.086;-1.606;2023-08-12T09:50:24;13.75;;;3.67;;
39276;SDS011;63149;48.086;-1.606;2023-08-12T09:52:53;12.93;;;3.95;;
39276;SDS011;63149;48.086;-1.606;2023-08-12T09:55:21;21.02;;;5.55;;
39276;SDS011;63149;48.086;-1.606;2023-08-12T09:57:50;8.90;;;3.63;;
39276;SDS011;63149;48.086;-1.606;2023-08-12T10:00:18;15.52;;;3.75;;
39276;SDS011;63149;48.086;-1.606;2023-08-12T10:02:47;19.33;;;4.18;;
39276;SDS011;63149;48.086;-1.606;2023-08-12T10:05:18;17.30;;;4.55;;
39276;SDS011;63149;48.086;-1.606;2023-08-12T10:07:47;18.08;;;4.00;;
39276;SDS011;63149;48.086;-1.606;2023-08-12T10:10:16;9.77;;;3.10;;
39276;SDS011;63149;48.086;-1.606;2023-08-12T10:12:44;14.02;;;3.55;;
39276;SDS011;63149;48.086;-1.606;2023-08-12T10:15:11;9.23;;;3.08;;
39276;SDS011;63149;48.086;-1.606;2023-08-12T10:17:39;12.80;;;3.25;;
39276;SDS011;63149;48.086;-1.606;2023-08-12T10:20:08;12.15;;;3.33;;
39276;SDS011;63149;48.086;-1.606;2023-08-12T10:22:38;16.60;;;3.53;;
39276;SDS011;63149;48.086;-1.606;2023-08-12T10:25:07;10.15;;;3.40;;
39276;SDS011;63149;48.086;-1.606;2023-08-12T10:27:36;8.93;;;3.28;;
39276;SDS011;63149;48.086;-1.606;2023-08-12T10:30:03;12.63;;;3.45;;
39276;SDS011;63149;48.086;-1.606;2023-08-12T10:32:30;13.73;;;2.88;;
39276;SDS011;63149;48.086;-1.606;2023-08-12T10:34:58;10.32;;;3.38;;
39276;SDS011;63149;48.086;-1.606;2023-08-12T10:37:25;12.13;;;3.38;;
39276;SDS011;63149;48.086;-1.606;2023-08-12T10:39:53;9.63;;;3.60;;
39276;SDS011;63149;48.086;-1.606;2023-08-12T10:45:08;9.32;;;3.03;;
39276;SDS011;63149;48.086;-1.606;2023-08-12T10:47:39;10.25;;;2.97;;
39276;SDS011;63149;48.086;-1.606;2023-08-12T10:50:16;12.30;;;3.67;;
39276;SDS011;63149;48.086;-1.606;2023-08-12T10:52:44;16.05;;;3.70;;
39276;SDS011;63149;48.086;-1.606;2023-08-12T10:55:18;11.90;;;2.72;;
39276;SDS011;63149;48.086;-1.606;2023-08-12T10:57:47;10.70;;;2.75;;
39276;SDS011;63149;48.086;-1.606;2023-08-12T11:00:15;8.95;;;2.60;;
39276;SDS011;63149;48.086;-1.606;2023-08-12T11:02:48;11.73;;;2.90;;
39276;SDS011;63149;48.086;-1.606;2023-08-12T11:05:17;11.65;;;3.20;;
39276;SDS011;63149;48.086;-1.606;2023-08-12T11:07:45;7.95;;;2.65;;
39276;SDS011;63149;48.086;-1.606;2023-08-12T11:10:15;7.40;;;2.80;;
39276;SDS011;63149;48.086;-1.606;2023-08-12T11:12:47;7.50;;;2.25;;
39276;SDS011;63149;48.086;-1.606;2023-08-12T11:15:28;14.02;;;3.25;;
39276;SDS011;63149;48.086;-1.606;2023-08-12T11:17:58;9.00;;;3.08;;
39276;SDS011;63149;48.086;-1.606;2023-08-12T11:20:25;11.50;;;3.08;;
39276;SDS011;63149;48.086;-1.606;2023-08-12T11:22:54;10.70;;;3.40;;
39276;SDS011;63149;48.086;-1.606;2023-08-12T11:25:23;10.95;;;3.33;;
39276;SDS011;63149;48.086;-1.606;2023-08-12T11:27:51;14.30;;;3.45;;
39276;SDS011;63149;48.086;-1.606;2023-08-12T11:30:19;10.32;;;2.85;;
39276;SDS011;63149;48.086;-1.606;2023-08-12T11:32:49;11.02;;;2.55;;
39276;SDS011;63149;48.086;-1.606;2023-08-12T11:35:18;12.60;;;3.20;;
39276;SDS011;63149;48.086;-1.606;2023-08-12T11:37:46;17.23;;;2.97;;
39276;SDS011;63149;48.086;-1.606;2023-08-12T11:40:14;12.80;;;4.10;;
39276;SDS011;63149;48.086;-1.606;2023-08-12T11:42:42;11.57;;;3.25;;
39276;SDS011;63149;48.086;-1.606;2023-08-12T11:45:12;15.65;;;3.22;;
39276;SDS011;63149;48.086;-1.606;2023-08-12T11:47:40;11.98;;;3.17;;
39276;SDS011;63149;48.086;-1.606;2023-08-12T11:50:09;9.23;;;2.53;;
39276;SDS011;63149;48.086;-1.606;2023-08-12T11:52:37;13.20;;;2.78;;
39276;SDS011;63149;48.086;-1.606;2023-08-12T11:55:05;14.60;;;3.15;;
39276;SDS011;63149;48.086;-1.606;2023-08-12T11:57:33;11.75;;;2.92;;
39276;SDS011;63149;48.086;-1.606;2023-08-12T12:00:00;18.38;;;2.95;;
39276;SDS011;63149;48.086;-1.606;2023-08-12T12:02:31;13.32;;;3.10;;
39276;SDS011;63149;48.086;-1.606;2023-08-12T12:05:04;10.32;;;2.65;;
39276;SDS011;63149;48.086;-1.606;2023-08-12T12:07:33;12.63;;;3.13;;
39276;SDS011;63149;48.086;-1.606;2023-08-12T12:10:01;9.80;;;2.55;;
39276;SDS011;63149;48.086;-1.606;2023-08-12T12:12:27;12.63;;;2.85;;
39276;SDS011;63149;48.086;-1.606;2023-08-12T12:14:55;16.35;;;2.97;;
39276;SDS011;63149;48.086;-1.606;2023-08-12T12:17:22;11.60;;;3.58;;
39276;SDS011;63149;48.086;-1.606;2023-08-12T12:19:53;8.18;;;2.65;;
39276;SDS011;63149;48.086;-1.606;2023-08-12T12:22:26;9.90;;;2.80;;
39276;SDS011;63149;48.086;-1.606;2023-08-12T12:27:20;11.95;;;3.10;;
39276;SDS011;63149;48.086;-1.606;2023-08-12T12:29:47;12.85;;;2.67;;
39276;SDS011;63149;48.086;-1.606;2023-08-12T12:32:14;11.88;;;2.95;;
39276;SDS011;63149;48.086;-1.606;2023-08-12T12:34:44;18.35;;;3.00;;
39276;SDS011;63149;48.086;-1.606;2023-08-12T12:37:13;9.35;;;2.40;;
39276;SDS011;63149;48.086;-1.606;2023-08-12T12:39:40;13.98;;;2.85;;
39276;SDS011;63149;48.086;-1.606;2023-08-12T12:42:07;7.10;;;2.85;;
39276;SDS011;63149;48.086;-1.606;2023-08-12T12:44:34;13.93;;;3.28;;
39276;SDS011;63149;48.086;-1.606;2023-08-12T12:47:01;13.18;;;3.03;;
39276;SDS011;63149;48.086;-1.606;2023-08-12T12:49:29;9.45;;;2.55;;
39276;SDS011;63149;48.086;-1.606;2023-08-12T12:51:56;8.40;;;2.40;;
39276;SDS011;63149;48.086;-1.606;2023-08-12T12:54:24;7.63;;;2.30;;
39276;SDS011;63149;48.086;-1.606;2023-08-12T12:56:51;9.10;;;2.47;;
39276;SDS011;63149;48.086;-1.606;2023-08-12T12:59:18;11.50;;;3.17;;
39276;SDS011;63149;48.086;-1.606;2023-08-12T13:01:45;11.27;;;3.03;;
39276;SDS011;63149;48.086;-1.606;2023-08-12T13:04:12;9.75;;;2.67;;
39276;SDS011;63149;48.086;-1.606;2023-08-12T13:06:39;12.52;;;3.00;;
39276;SDS011;63149;48.086;-1.606;2023-08-12T13:09:06;16.83;;;3.33;;
39276;SDS011;63149;48.086;-1.606;2023-08-12T13:11:34;16.00;;;2.95;;
39276;SDS011;63149;48.086;-1.606;2023-08-12T13:14:01;11.80;;;2.60;;
39276;SDS011;63149;48.086;-1.606;2023-08-12T13:16:29;14.98;;;2.95;;
39276;SDS011;63149;48.086;-1.606;2023-08-12T13:18:56;8.82;;;2.17;;
39276;SDS011;63149;48.086;-1.606;2023-08-12T13:21:23;11.63;;;2.90;;
39276;SDS011;63149;48.086;-1.606;2023-08-12T13:23:50;10.88;;;2.35;;
39276;SDS011;63149;48.086;-1.606;2023-08-12T13:26:17;12.05;;;2.72;;
39276;SDS011;63149;48.086;-1.606;2023-08-12T13:28:46;8.73;;;2.80;;
39276;SDS011;63149;48.086;-1.606;2023-08-12T13:31:13;12.88;;;2.53;;
39276;SDS011;63149;48.086;-1.606;2023-08-12T13:33:40;9.88;;;2.55;;
39276;SDS011;63149;48.086;-1.606;2023-08-12T13:36:07;15.15;;;3.10;;
39276;SDS011;63149;48.086;-1.606;2023-08-12T13:38:34;12.55;;;2.33;;
39276;SDS011;63149;48.086;-1.606;2023-08-12T13:41:01;11.13;;;2.80;;
39276;SDS011;63149;48.086;-1.606;2023-08-12T13:43:28;9.93;;;2.50;;
39276;SDS011;63149;48.086;-1.606;2023-08-12T13:45:57;9.10;;;2.55;;
39276;SDS011;63149;48.086;-1.606;2023-08-12T13:48:24;9.10;;;2.35;;
39276;SDS011;63149;48.086;-1.606;2023-08-12T13:50:51;13.27;;;2.47;;
39276;SDS011;63149;48.086;-1.606;2023-08-12T13:53:18;10.60;;;2.83;;
39276;SDS011;63149;48.086;-1.606;2023-08-12T13:55:45;12.05;;;2.72;;
39276;SDS011;63149;48.086;-1.606;2023-08-12T13:58:12;12.55;;;2.95;;
39276;SDS011;63149;48.086;-1.606;2023-08-12T14:00:39;9.05;;;2.30;;
39276;SDS011;63149;48.086;-1.606;2023-08-12T14:03:07;11.82;;;2.72;;
39276;SDS011;63149;48.086;-1.606;2023-08-12T14:05:34;8.88;;;2.80;;
39276;SDS011;63149;48.086;-1.606;2023-08-12T14:08:01;12.65;;;2.55;;
39276;SDS011;63149;48.086;-1.606;2023-08-12T14:10:28;10.88;;;2.22;;
39276;SDS011;63149;48.086;-1.606;2023-08-12T14:12:55;14.15;;;2.80;;
39276;SDS011;63149;48.086;-1.606;2023-08-12T14:15:21;10.63;;;3.10;;
39276;SDS011;63149;48.086;-1.606;2023-08-12T14:17:48;9.80;;;2.30;;
39276;SDS011;63149;48.086;-1.606;2023-08-12T14:20:17;12.07;;;2.72;;
39276;SDS011;63149;48.086;-1.606;2023-08-12T14:22:44;11.48;;;2.20;;
39276;SDS011;63149;48.086;-1.606;2023-08-12T14:25:10;13.85;;;2.85;;
39276;SDS011;63149;48.086;-1.606;2023-08-12T14:27:37;10.75;;;2.40;;
39276;SDS011;63149;48.086;-1.606;2023-08-12T14:30:06;11.60;;;2.60;;
39276;SDS011;63149;48.086;-1.606;2023-08-12T14:32:33;6.97;;;2.10;;
39276;SDS011;63149;48.086;-1.606;2023-08-12T14:35:00;9.38;;;2.10;;
39276;SDS011;63149;48.086;-1.606;2023-08-12T14:37:29;10.85;;;2.78;;
39276;SDS011;63149;48.086;-1.606;2023-08-12T14:39:55;13.35;;;2.42;;
39276;SDS011;63149;48.086;-1.606;2023-08-12T14:42:22;10.27;;;2.13;;
39276;SDS011;63149;48.086;-1.606;2023-08-12T14:44:49;8.73;;;2.00;;
39276;SDS011;63149;48.086;-1.606;2023-08-12T14:47:16;8.02;;;2.13;;
39276;SDS011;63149;48.086;-1.606;2023-08-12T14:49:44;11.00;;;2.42;;
39276;SDS011;63149;48.086;-1.606;2023-08-12T14:52:15;15.05;;;2.35;;
39276;SDS011;63149;48.086;-1.606;2023-08-12T14:54:45;11.55;;;2.22;;
39276;SDS011;63149;48.086;-1.606;2023-08-12T14:57:12;7.00;;;1.98;;
39276;SDS011;63149;48.086;-1.606;2023-08-12T14:59:39;6.88;;;1.85;;
39276;SDS011;63149;48.086;-1.606;2023-08-12T15:02:06;6.25;;;2.22;;
39276;SDS011;63149;48.086;-1.606;2023-08-12T15:04:33;9.85;;;1.77;;
39276;SDS011;63149;48.086;-1.606;2023-08-12T15:07:00;11.00;;;2.25;;
39276;SDS011;63149;48.086;-1.606;2023-08-12T15:09:27;10.10;;;2.20;;
39276;SDS011;63149;48.086;-1.606;2023-08-12T15:11:56;9.75;;;2.33;;
39276;SDS011;63149;48.086;-1.606;2023-08-12T15:14:22;3.90;;;1.33;;
39276;SDS011;63149;48.086;-1.606;2023-08-12T15:16:50;5.20;;;1.25;;
39276;SDS011;63149;48.086;-1.606;2023-08-12T15:19:17;5.18;;;1.58;;
39276;SDS011;63149;48.086;-1.606;2023-08-12T15:21:44;9.52;;;1.73;;
39276;SDS011;63149;48.086;-1.606;2023-08-12T15:24:11;7.70;;;1.80;;
39276;SDS011;63149;48.086;-1.606;2023-08-12T15:26:38;10.50;;;2.20;;
39276;SDS011;63149;48.086;-1.606;2023-08-12T15:29:07;8.23;;;1.77;;
39276;SDS011;63149;48.086;-1.606;2023-08-12T15:31:33;6.18;;;1.50;;
39276;SDS011;63149;48.086;-1.606;2023-08-12T15:34:02;7.85;;;1.70;;
39276;SDS011;63149;48.086;-1.606;2023-08-12T15:36:29;6.82;;;1.67;;
39276;SDS011;63149;48.086;-1.606;2023-08-12T15:38:56;10.27;;;2.10;;
39276;SDS011;63149;48.086;-1.606;2023-08-12T15:41:23;8.50;;;2.38;;
39276;SDS011;63149;48.086;-1.606;2023-08-12T15:43:50;8.90;;;1.92;;
39276;SDS011;63149;48.086;-1.606;2023-08-12T15:46:18;9.13;;;2.55;;
39276;SDS011;63149;48.086;-1.606;2023-08-12T15:48:45;13.52;;;2.35;;
39276;SDS011;63149;48.086;-1.606;2023-08-12T15:51:12;12.13;;;2.65;;
39276;SDS011;63149;48.086;-1.606;2023-08-12T15:53:39;8.95;;;2.22;;
39276;SDS011;63149;48.086;-1.606;2023-08-12T15:56:05;6.88;;;2.10;;
39276;SDS011;63149;48.086;-1.606;2023-08-12T15:58:32;14.13;;;3.47;;
39276;SDS011;63149;48.086;-1.606;2023-08-12T16:00:59;11.98;;;2.78;;
39276;SDS011;63149;48.086;-1.606;2023-08-12T16:03:28;11.20;;;2.90;;
39276;SDS011;63149;48.086;-1.606;2023-08-12T16:05:56;12.48;;;2.30;;
39276;SDS011;63149;48.086;-1.606;2023-08-12T16:08:24;13.73;;;2.20;;
39276;SDS011;63149;48.086;-1.606;2023-08-12T16:10:52;10.20;;;2.60;;
39276;SDS011;63149;48.086;-1.606;2023-08-12T16:13:19;11.48;;;2.45;;
39276;SDS011;63149;48.086;-1.606;2023-08-12T16:15:46;13.77;;;2.70;;
39276;SDS011;63149;48.086;-1.606;2023-08-12T16:18:13;13.80;;;3.47;;
39276;SDS011;63149;48.086;-1.606;2023-08-12T16:20:41;15.52;;;3.22;;
39276;SDS011;63149;48.086;-1.606;2023-08-12T16:23:08;8.60;;;2.55;;
39276;SDS011;63149;48.086;-1.606;2023-08-12T16:25:35;16.42;;;3.13;;
39276;SDS011;63149;48.086;-1.606;2023-08-12T16:28:02;15.43;;;3.28;;
39276;SDS011;63149;48.086;-1.606;2023-08-12T16:30:30;13.40;;;3.22;;
39276;SDS011;63149;48.086;-1.606;2023-08-12T16:32:56;11.88;;;2.80;;
39276;SDS011;63149;48.086;-1.606;2023-08-12T16:35:23;10.65;;;3.03;;
39276;SDS011;63149;48.086;-1.606;2023-08-12T16:37:52;13.48;;;2.50;;
39276;SDS011;63149;48.086;-1.606;2023-08-12T16:40:19;22.63;;;4.70;;
39276;SDS011;63149;48.086;-1.606;2023-08-12T16:42:46;13.18;;;3.15;;
39276;SDS011;63149;48.086;-1.606;2023-08-12T16:45:13;12.13;;;3.50;;
39276;SDS011;63149;48.086;-1.606;2023-08-12T16:47:40;16.85;;;2.85;;
39276;SDS011;63149;48.086;-1.606;2023-08-12T16:50:07;11.63;;;2.55;;
39276;SDS011;63149;48.086;-1.606;2023-08-12T16:52:35;13.23;;;2.88;;
39276;SDS011;63149;48.086;-1.606;2023-08-12T16:55:03;14.80;;;2.88;;
39276;SDS011;63149;48.086;-1.606;2023-08-12T16:57:31;12.48;;;2.95;;
39276;SDS011;63149;48.086;-1.606;2023-08-12T16:59:58;13.55;;;2.50;;
39276;SDS011;63149;48.086;-1.606;2023-08-12T17:02:28;13.35;;;2.45;;
39276;SDS011;63149;48.086;-1.606;2023-08-12T17:04:55;14.93;;;3.13;;
39276;SDS011;63149;48.086;-1.606;2023-08-12T17:07:23;14.27;;;2.45;;
39276;SDS011;63149;48.086;-1.606;2023-08-12T17:09:50;13.23;;;3.08;;
39276;SDS011;63149;48.086;-1.606;2023-08-12T17:12:18;14.55;;;2.97;;
39276;SDS011;63149;48.086;-1.606;2023-08-12T17:14:45;17.55;;;3.30;;
39276;SDS011;63149;48.086;-1.606;2023-08-12T17:17:13;12.65;;;3.03;;
39276;SDS011;63149;48.086;-1.606;2023-08-12T17:19:39;9.30;;;2.25;;
39276;SDS011;63149;48.086;-1.606;2023-08-12T17:22:07;10.15;;;2.60;;
39276;SDS011;63149;48.086;-1.606;2023-08-12T17:24:34;12.93;;;3.15;;
39276;SDS011;63149;48.086;-1.606;2023-08-12T17:27:01;16.40;;;3.30;;
39276;SDS011;63149;48.086;-1.606;2023-08-12T17:29:30;12.70;;;2.83;;
39276;SDS011;63149;48.086;-1.606;2023-08-12T17:31:56;19.55;;;3.50;;
39276;SDS011;63149;48.086;-1.606;2023-08-12T17:34:23;12.20;;;2.80;;
39276;SDS011;63149;48.086;-1.606;2023-08-12T17:36:50;14.73;;;3.00;;
39276;SDS011;63149;48.086;-1.606;2023-08-12T17:39:17;20.50;;;8.07;;
39276;SDS011;63149;48.086;-1.606;2023-08-12T17:41:44;15.27;;;5.35;;
39276;SDS011;63149;48.086;-1.606;2023-08-12T17:44:11;15.60;;;3.67;;
39276;SDS011;63149;48.086;-1.606;2023-08-12T17:46:40;13.05;;;3.80;;
39276;SDS011;63149;48.086;-1.606;2023-08-12T17:49:07;12.23;;;2.83;;
39276;SDS011;63149;48.086;-1.606;2023-08-12T17:51:34;14.40;;;3.75;;
39276;SDS011;63149;48.086;-1.606;2023-08-12T17:54:01;13.20;;;3.15;;
39276;SDS011;63149;48.086;-1.606;2023-08-12T17:56:28;17.50;;;4.30;;
39276;SDS011;63149;48.086;-1.606;2023-08-12T17:58:55;12.73;;;3.40;;
39276;SDS011;63149;48.086;-1.606;2023-08-12T18:01:22;13.23;;;2.78;;
39276;SDS011;63149;48.086;-1.606;2023-08-12T18:03:50;22.60;;;4.10;;
39276;SDS011;63149;48.086;-1.606;2023-08-12T18:06:17;16.13;;;5.00;;
39276;SDS011;63149;48.086;-1.606;2023-08-12T18:08:44;24.20;;;7.88;;
39276;SDS011;63149;48.086;-1.606;2023-08-12T18:11:11;15.38;;;4.13;;
39276;SDS011;63149;48.086;-1.606;2023-08-12T18:13:38;15.35;;;4.35;;
39276;SDS011;63149;48.086;-1.606;2023-08-12T18:16:05;18.90;;;5.90;;
39276;SDS011;63149;48.086;-1.606;2023-08-12T18:18:32;23.08;;;5.43;;
39276;SDS011;63149;48.086;-1.606;2023-08-12T18:21:00;16.40;;;5.10;;
39276;SDS011;63149;48.086;-1.606;2023-08-12T18:23:27;20.90;;;5.07;;
39276;SDS011;63149;48.086;-1.606;2023-08-12T18:25:54;16.92;;;3.95;;
39276;SDS011;63149;48.086;-1.606;2023-08-12T18:28:21;19.50;;;3.42;;
39276;SDS011;63149;48.086;-1.606;2023-08-12T18:30:48;14.48;;;3.15;;
39276;SDS011;63149;48.086;-1.606;2023-08-12T18:33:15;12.27;;;2.50;;
39276;SDS011;63149;48.086;-1.606;2023-08-12T18:35:42;15.95;;;3.42;;
39276;SDS011;63149;48.086;-1.606;2023-08-12T18:38:11;12.07;;;2.97;;
39276;SDS011;63149;48.086;-1.606;2023-08-12T18:40:38;9.40;;;2.42;;
39276;SDS011;63149;48.086;-1.606;2023-08-12T18:43:05;15.43;;;3.15;;
39276;SDS011;63149;48.086;-1.606;2023-08-12T18:45:31;9.98;;;2.63;;
39276;SDS011;63149;48.086;-1.606;2023-08-12T18:47:58;9.73;;;2.60;;
39276;SDS011;63149;48.086;-1.606;2023-08-12T18:50:25;11.90;;;2.15;;
39276;SDS011;63149;48.086;-1.606;2023-08-12T18:52:52;10.02;;;2.97;;
39276;SDS011;63149;48.086;-1.606;2023-08-12T18:55:21;21.08;;;2.90;;
39276;SDS011;63149;48.086;-1.606;2023-08-12T18:57:48;20.92;;;3.30;;
39276;SDS011;63149;48.086;-1.606;2023-08-12T19:00:15;10.43;;;2.90;;
39276;SDS011;63149;48.086;-1.606;2023-08-12T19:02:44;7.90;;;2.20;;
39276;SDS011;63149;48.086;-1.606;2023-08-12T19:05:11;11.63;;;2.58;;
39276;SDS011;63149;48.086;-1.606;2023-08-12T19:07:38;16.08;;;3.35;;
39276;SDS011;63149;48.086;-1.606;2023-08-12T19:10:06;17.10;;;3.22;;
39276;SDS011;63149;48.086;-1.606;2023-08-12T19:12:35;12.32;;;3.13;;
39276;SDS011;63149;48.086;-1.606;2023-08-12T19:15:02;11.38;;;3.38;;
39276;SDS011;63149;48.086;-1.606;2023-08-12T19:17:30;17.65;;;2.85;;
39276;SDS011;63149;48.086;-1.606;2023-08-12T19:19:56;22.90;;;3.22;;
39276;SDS011;63149;48.086;-1.606;2023-08-12T19:22:23;16.50;;;3.25;;
39276;SDS011;63149;48.086;-1.606;2023-08-12T19:24:50;16.15;;;2.92;;
39276;SDS011;63149;48.086;-1.606;2023-08-12T19:27:17;12.07;;;2.30;;
39276;SDS011;63149;48.086;-1.606;2023-08-12T19:29:45;12.77;;;3.22;;
39276;SDS011;63149;48.086;-1.606;2023-08-12T19:32:12;16.23;;;3.13;;
39276;SDS011;63149;48.086;-1.606;2023-08-12T19:34:39;19.73;;;2.85;;